createdAt,value
2023-06-01T00:00:08.280Z,16.94
2023-06-01T00:02:35.332Z,16.93
2023-06-01T00:05:02.741Z,16.92
2023-06-01T00:07:31.152Z,16.87
2023-06-01T00:09:58.225Z,16.86
2023-06-01T00:12:25.518Z,16.81
2023-06-01T00:14:52.560Z,16.80
2023-06-01T00:17:20.997Z,16.82
2023-06-01T00:19:49.002Z,16.82
2023-06-01T00:22:16.687Z,16.82
2023-06-01T00:24:43.735Z,16.82
2023-06-01T00:27:10.869Z,16.82
2023-06-01T00:29:37.923Z,16.81
2023-06-01T00:32:05.764Z,16.82
2023-06-01T00:34:34.158Z,16.80
2023-06-01T00:37:01.352Z,16.76
2023-06-01T00:39:28.383Z,16.72
2023-06-01T00:41:57.727Z,16.73
2023-06-01T00:44:25.668Z,16.72
2023-06-01T00:46:52.990Z,16.66
2023-06-01T00:49:20.146Z,16.58
2023-06-01T00:51:48.577Z,16.51
2023-06-01T00:54:16.045Z,16.47
2023-06-01T00:56:43.559Z,16.42
2023-06-01T00:59:11.067Z,16.36
2023-06-01T01:01:38.183Z,16.35
2023-06-01T01:04:05.413Z,16.35
2023-06-01T01:06:49.985Z,16.30
2023-06-01T01:09:27.435Z,16.27
2023-06-01T01:12:00.866Z,16.23
2023-06-01T01:14:36.748Z,16.21
2023-06-01T01:17:11.459Z,16.21
2023-06-01T01:19:54.640Z,16.21
2023-06-01T01:23:00.722Z,16.19
2023-06-01T01:25:36.701Z,16.18
2023-06-01T01:28:25.237Z,16.11
2023-06-01T01:30:55.197Z,16.09
2023-06-01T01:33:22.792Z,16.07
2023-06-01T01:35:50.775Z,16.05
2023-06-01T01:38:17.774Z,16.05
2023-06-01T01:40:44.831Z,16.02
2023-06-01T01:43:12.265Z,15.98
2023-06-01T01:45:40.996Z,15.96
2023-06-01T01:48:18.696Z,15.94
2023-06-01T01:50:52.909Z,15.93
2023-06-01T01:53:24.361Z,15.89
2023-06-01T01:55:53.628Z,15.85
2023-06-01T01:58:20.838Z,15.82
2023-06-01T02:00:50.706Z,15.76
2023-06-01T02:03:18.621Z,15.74
2023-06-01T02:05:46.059Z,15.69
2023-06-01T02:08:13.467Z,15.68
2023-06-01T02:10:42.041Z,15.66
2023-06-01T02:13:09.089Z,15.62
2023-06-01T02:15:36.337Z,15.58
2023-06-01T02:18:04.982Z,15.59
2023-06-01T02:20:32.017Z,15.63
2023-06-01T02:22:59.838Z,15.61
2023-06-01T02:25:26.945Z,15.58
2023-06-01T02:27:53.988Z,15.58
2023-06-01T02:30:21.594Z,15.56
2023-06-01T02:32:49.661Z,15.57
2023-06-01T02:35:18.625Z,15.53
2023-06-01T02:37:45.657Z,15.54
2023-06-01T02:40:13.443Z,15.53
2023-06-01T02:42:41.250Z,15.48
2023-06-01T02:45:10.022Z,15.48
2023-06-01T02:47:37.052Z,15.47
2023-06-01T02:50:06.090Z,15.47
2023-06-01T02:52:37.299Z,15.46
2023-06-01T02:55:05.974Z,15.45
2023-06-01T02:57:53.185Z,15.44
2023-06-01T03:00:22.753Z,15.43
2023-06-01T03:02:50.408Z,15.42
2023-06-01T03:05:19.236Z,15.42
2023-06-01T03:07:54.771Z,15.48
2023-06-01T03:10:26.197Z,15.46
2023-06-01T03:12:59.638Z,15.39
2023-06-01T03:15:28.402Z,15.41
2023-06-01T03:17:55.661Z,15.46
2023-06-01T03:20:23.713Z,15.51
2023-06-01T03:22:50.855Z,15.58
2023-06-01T03:25:21.170Z,15.63
2023-06-01T03:27:48.300Z,15.67
2023-06-01T03:30:15.802Z,15.64
2023-06-01T03:32:44.731Z,15.68
2023-06-01T03:35:12.878Z,15.73
2023-06-01T03:37:43.233Z,15.82
2023-06-01T03:40:13.678Z,15.86
2023-06-01T03:42:46.855Z,15.92
2023-06-01T03:45:16.676Z,16.01
2023-06-01T03:47:44.291Z,16.03
2023-06-01T03:50:12.071Z,16.09
2023-06-01T03:52:39.775Z,16.12
2023-06-01T03:55:11.886Z,16.10
2023-06-01T03:58:04.151Z,16.11
2023-06-01T04:00:31.770Z,16.10
2023-06-01T04:03:02.668Z,16.14
2023-06-01T04:05:30.114Z,16.18
2023-06-01T04:07:57.994Z,16.23
2023-06-01T04:10:25.120Z,16.24
2023-06-01T04:12:53.088Z,16.26
2023-06-01T04:15:24.752Z,16.28
2023-06-01T04:17:51.993Z,16.39
2023-06-01T04:20:19.306Z,16.55
2023-06-01T04:22:47.385Z,16.66
2023-06-01T04:25:19.450Z,16.80
2023-06-01T04:27:48.820Z,16.91
2023-06-01T04:30:17.783Z,17.00
2023-06-01T04:32:49.810Z,17.00
2023-06-01T04:35:18.449Z,16.97
2023-06-01T04:37:45.959Z,16.95
2023-06-01T04:40:14.725Z,16.98
2023-06-01T04:42:56.929Z,17.03
2023-06-01T04:45:26.725Z,17.16
2023-06-01T04:47:58.467Z,17.15
2023-06-01T04:50:41.793Z,17.13
2023-06-01T04:53:08.835Z,17.16
2023-06-01T04:55:37.813Z,17.23
2023-06-01T04:58:06.578Z,17.35
2023-06-01T05:00:34.512Z,17.41
2023-06-01T05:03:04.021Z,17.52
2023-06-01T05:05:31.502Z,17.62
2023-06-01T05:07:58.579Z,17.74
2023-06-01T05:10:25.990Z,17.84
2023-06-01T05:12:53.368Z,17.89
2023-06-01T05:15:20.748Z,17.99
2023-06-01T05:17:50.874Z,18.09
2023-06-01T05:20:21.707Z,18.22
2023-06-01T05:22:53.988Z,18.33
2023-06-01T05:25:21.202Z,18.44
2023-06-01T05:27:48.318Z,18.54
2023-06-01T05:30:15.736Z,18.64
2023-06-01T05:32:44.696Z,18.78
2023-06-01T05:35:15.922Z,18.90
2023-06-01T05:37:46.922Z,19.05
2023-06-01T05:40:14.441Z,19.22
2023-06-01T05:42:41.502Z,19.40
2023-06-01T05:45:10.717Z,19.63
2023-06-01T05:47:37.764Z,20.12
2023-06-01T05:50:06.613Z,20.66
2023-06-01T05:52:34.184Z,20.98
2023-06-01T05:55:05.435Z,21.35
2023-06-01T05:57:32.687Z,21.64
2023-06-01T06:00:02.014Z,21.82
2023-06-01T06:02:30.498Z,22.01
2023-06-01T06:04:57.597Z,22.19
2023-06-01T06:07:24.599Z,22.49
2023-06-01T06:09:54.243Z,22.69
2023-06-01T06:12:25.318Z,22.94
2023-06-01T06:14:55.404Z,23.09
2023-06-01T06:17:22.578Z,23.33
2023-06-01T06:19:50.583Z,23.45
2023-06-01T06:22:17.703Z,23.54
2023-06-01T06:24:44.876Z,23.65
2023-06-01T06:27:14.018Z,23.86
2023-06-01T06:29:42.760Z,24.10
2023-06-01T06:32:10.605Z,24.34
2023-06-01T06:34:37.708Z,24.27
2023-06-01T06:37:06.337Z,24.50
2023-06-01T06:39:33.411Z,24.99
2023-06-01T06:42:02.193Z,25.47
2023-06-01T06:44:29.246Z,25.46
2023-06-01T06:47:02.798Z,25.41
2023-06-01T06:49:30.207Z,25.42
2023-06-01T06:52:00.281Z,25.51
2023-06-01T06:54:30.032Z,25.69
2023-06-01T06:57:00.074Z,25.92
2023-06-01T06:59:27.252Z,26.26
2023-06-01T07:01:54.287Z,26.49
2023-06-01T07:04:23.612Z,26.65
2023-06-01T07:06:52.069Z,26.80
2023-06-01T07:09:19.705Z,26.80
2023-06-01T07:11:48.754Z,27.04
2023-06-01T07:14:16.033Z,27.33
2023-06-01T07:16:43.115Z,27.25
2023-06-01T07:19:10.725Z,27.25
2023-06-01T07:21:43.156Z,27.39
2023-06-01T07:24:13.225Z,27.42
2023-06-01T07:26:40.989Z,27.30
2023-06-01T07:29:07.998Z,27.29
2023-06-01T07:31:36.472Z,27.35
2023-06-01T07:34:03.819Z,27.53
2023-06-01T07:36:38.015Z,27.80
2023-06-01T07:39:07.711Z,28.03
2023-06-01T07:41:34.827Z,28.14
2023-06-01T07:44:02.087Z,28.24
2023-06-01T07:46:29.147Z,28.43
2023-06-01T07:48:56.477Z,28.73
2023-06-01T07:51:23.564Z,28.98
2023-06-01T07:53:51.087Z,28.95
2023-06-01T07:56:19.647Z,29.14
2023-06-01T07:58:46.725Z,29.36
2023-06-01T08:01:14.954Z,29.33
2023-06-01T08:03:46.863Z,29.43
2023-06-01T08:06:14.738Z,29.50
2023-06-01T08:08:41.842Z,29.84
2023-06-01T08:11:10.124Z,30.10
2023-06-01T08:13:39.019Z,29.96
2023-06-01T08:16:06.690Z,29.97
2023-06-01T08:18:34.245Z,30.31
2023-06-01T08:21:05.343Z,30.65
2023-06-01T08:23:32.559Z,30.81
2023-06-01T08:25:59.850Z,30.97
2023-06-01T08:28:27.708Z,31.09
2023-06-01T08:30:57.411Z,31.27
2023-06-01T08:33:24.514Z,31.30
2023-06-01T08:35:51.550Z,31.37
2023-06-01T08:38:18.595Z,31.57
2023-06-01T08:40:46.498Z,31.71
2023-06-01T08:43:18.630Z,31.36
2023-06-01T08:45:48.172Z,31.07
2023-06-01T08:48:19.200Z,31.05
2023-06-01T08:50:50.325Z,31.17
2023-06-01T08:53:19.789Z,31.47
2023-06-01T08:55:49.960Z,31.65
2023-06-01T08:58:17.164Z,31.76
2023-06-01T09:00:44.715Z,31.45
2023-06-01T09:03:13.229Z,31.50
2023-06-01T09:05:41.802Z,31.65
2023-06-01T09:08:09.290Z,31.72
2023-06-01T09:10:36.574Z,31.89
2023-06-01T09:13:04.465Z,31.87
2023-06-01T09:15:34.616Z,32.04
2023-06-01T09:18:09.150Z,32.34
2023-06-01T09:20:38.386Z,32.30
2023-06-01T09:23:06.869Z,32.18
2023-06-01T09:25:34.563Z,32.51
2023-06-01T09:28:03.486Z,32.73
2023-06-01T09:30:40.113Z,32.73
2023-06-01T09:33:15.800Z,32.59
2023-06-01T09:35:44.723Z,32.57
2023-06-01T09:38:21.153Z,32.47
2023-06-01T09:41:00.299Z,32.70
2023-06-01T09:43:27.907Z,32.92
2023-06-01T09:46:09.282Z,33.31
2023-06-01T09:48:38.035Z,33.66
2023-06-01T09:51:06.140Z,33.91
2023-06-01T09:53:44.888Z,33.95
2023-06-01T09:56:12.263Z,33.97
2023-06-01T09:58:41.934Z,34.05
2023-06-01T10:01:10.208Z,34.20
2023-06-01T10:03:42.681Z,34.43
2023-06-01T10:06:11.959Z,34.57
2023-06-01T10:08:43.622Z,34.74
2023-06-01T10:11:10.868Z,34.86
2023-06-01T10:13:39.980Z,34.66
2023-06-01T10:16:10.536Z,34.43
2023-06-01T10:18:38.102Z,34.11
2023-06-01T10:21:07.713Z,33.97
2023-06-01T10:23:35.798Z,34.00
2023-06-01T10:26:12.371Z,33.94
2023-06-01T10:28:43.194Z,34.08
2023-06-01T10:31:39.813Z,34.34
2023-06-01T10:34:09.496Z,34.49
2023-06-01T10:37:15.981Z,34.30
2023-06-01T10:39:43.348Z,33.77
2023-06-01T10:42:37.505Z,33.49
2023-06-01T10:45:06.669Z,33.28
2023-06-01T10:47:47.363Z,33.33
2023-06-01T10:50:19.594Z,33.63
2023-06-01T10:52:47.244Z,34.00
2023-06-01T10:55:26.648Z,34.12
2023-06-01T10:58:25.334Z,34.22
2023-06-01T11:00:56.684Z,34.49
2023-06-01T11:03:47.081Z,34.56
2023-06-01T11:06:26.988Z,34.59
2023-06-01T11:08:59.797Z,34.24
2023-06-01T11:11:59.709Z,34.68
2023-06-01T11:14:32.103Z,35.24
2023-06-01T11:17:27.812Z,35.65
2023-06-01T11:19:58.817Z,35.79
2023-06-01T11:22:26.175Z,35.58
2023-06-01T11:24:56.459Z,35.57
2023-06-01T11:27:24.895Z,35.95
2023-06-01T11:29:53.630Z,36.31
2023-06-01T11:32:23.601Z,36.57
2023-06-01T11:34:52.435Z,36.70
2023-06-01T11:37:20.666Z,36.68
2023-06-01T11:39:49.104Z,36.46
2023-06-01T11:42:19.743Z,36.17
2023-06-01T11:45:00.977Z,35.72
2023-06-01T11:47:32.210Z,35.05
2023-06-01T11:49:59.819Z,34.50
2023-06-01T11:52:27.155Z,34.08
2023-06-01T11:54:54.230Z,33.85
2023-06-01T11:57:21.316Z,33.73
2023-06-01T11:59:53.263Z,33.65
2023-06-01T12:02:31.499Z,33.53
2023-06-01T12:05:07.184Z,33.31
2023-06-01T12:07:45.345Z,33.01
2023-06-01T12:10:15.636Z,32.93
2023-06-01T12:12:44.439Z,32.94
2023-06-01T12:15:12.594Z,33.05
2023-06-01T12:17:57.915Z,32.91
2023-06-01T12:20:34.952Z,32.82
2023-06-01T12:23:06.506Z,32.63
2023-06-01T12:25:34.117Z,32.26
2023-06-01T12:28:05.847Z,32.02
2023-06-01T12:30:35.982Z,31.74
2023-06-01T12:33:05.789Z,31.52
2023-06-01T12:35:34.462Z,31.29
2023-06-01T12:38:13.705Z,30.92
2023-06-01T12:40:41.233Z,30.77
2023-06-01T12:43:20.202Z,30.71
2023-06-01T12:45:49.405Z,30.64
2023-06-01T12:48:31.037Z,30.48
2023-06-01T12:50:59.617Z,30.47
2023-06-01T12:53:27.038Z,30.45
2023-06-01T12:55:54.334Z,30.52
2023-06-01T12:58:21.430Z,30.61
2023-06-01T13:00:57.205Z,30.73
2023-06-01T13:03:25.498Z,30.75
2023-06-01T13:05:53.667Z,30.90
2023-06-01T13:08:23.290Z,30.94
2023-06-01T13:10:51.537Z,30.91
2023-06-01T13:13:18.720Z,31.09
2023-06-01T13:15:46.699Z,31.32
2023-06-01T13:18:14.236Z,31.60
2023-06-01T13:20:41.364Z,31.72
2023-06-01T13:23:09.211Z,31.71
2023-06-01T13:25:39.212Z,31.84
2023-06-01T13:28:07.619Z,32.04
2023-06-01T13:30:34.919Z,32.14
2023-06-01T13:33:02.848Z,32.17
2023-06-01T13:35:29.869Z,32.17
2023-06-01T13:37:57.065Z,32.20
2023-06-01T13:40:25.384Z,32.14
2023-06-01T13:42:54.826Z,32.25
2023-06-01T13:45:22.693Z,32.43
2023-06-01T13:47:51.517Z,32.55
2023-06-01T13:50:19.106Z,32.54
2023-06-01T13:52:47.261Z,32.56
2023-06-01T13:55:15.916Z,32.46
2023-06-01T13:57:43.143Z,32.15
2023-06-01T14:00:13.300Z,31.62
2023-06-01T14:02:46.382Z,31.34
2023-06-01T14:05:19.959Z,31.08
2023-06-01T14:07:50.958Z,31.03
2023-06-01T14:10:18.565Z,31.22
2023-06-01T14:12:46.386Z,31.52
2023-06-01T14:15:14.972Z,31.75
2023-06-01T14:17:42.150Z,31.75
2023-06-01T14:20:10.428Z,31.54
2023-06-01T14:22:37.457Z,31.32
2023-06-01T14:25:05.394Z,31.23
2023-06-01T14:27:32.448Z,31.38
2023-06-01T14:30:01.985Z,31.44
2023-06-01T14:32:31.329Z,31.58
2023-06-01T14:34:58.779Z,31.66
2023-06-01T14:37:29.623Z,31.55
2023-06-01T14:40:06.287Z,31.34
2023-06-01T14:42:33.283Z,31.19
2023-06-01T14:45:06.019Z,31.09
2023-06-01T14:47:35.271Z,31.01
2023-06-01T14:50:02.434Z,30.84
2023-06-01T14:52:29.608Z,30.80
2023-06-01T14:54:56.629Z,30.86
2023-06-01T14:57:23.912Z,30.98
2023-06-01T15:00:02.573Z,30.97
2023-06-01T15:02:31.529Z,31.02
2023-06-01T15:05:00.011Z,31.13
2023-06-01T15:07:27.300Z,31.12
2023-06-01T15:09:54.614Z,31.09
2023-06-01T15:12:21.933Z,31.12
2023-06-01T15:14:50.993Z,30.93
2023-06-01T15:17:18.431Z,30.69
2023-06-01T15:19:46.559Z,30.37
2023-06-01T15:22:15.278Z,30.29
2023-06-01T15:24:42.623Z,30.27
2023-06-01T15:27:09.682Z,30.41
2023-06-01T15:29:36.946Z,30.40
2023-06-01T15:32:04.507Z,30.32
2023-06-01T15:34:31.654Z,30.18
2023-06-01T15:36:58.895Z,29.91
2023-06-01T15:39:27.390Z,29.72
2023-06-01T15:44:24.703Z,29.64
2023-06-01T15:46:52.162Z,29.56
2023-06-01T15:49:19.644Z,29.51
2023-06-01T15:51:46.857Z,29.45
2023-06-01T15:54:13.907Z,29.36
2023-06-01T15:59:10.918Z,29.05
2023-06-01T16:01:38.187Z,28.89
2023-06-01T16:04:05.775Z,28.88
2023-06-01T16:06:33.251Z,28.97
2023-06-01T16:09:00.410Z,28.95
2023-06-01T16:11:27.693Z,28.99
2023-06-01T16:13:56.075Z,28.90
2023-06-01T16:16:23.303Z,28.90
2023-06-01T16:18:50.396Z,28.90
2023-06-01T16:21:17.560Z,28.86
2023-06-01T16:23:44.822Z,28.85
2023-06-01T16:26:12.097Z,28.82
2023-06-01T16:28:39.208Z,28.77
2023-06-01T16:31:07.682Z,28.74
2023-06-01T16:33:34.714Z,28.71
2023-06-01T16:36:01.828Z,28.68
2023-06-01T16:38:28.886Z,28.62
2023-06-01T16:40:56.030Z,28.55
2023-06-01T16:43:23.034Z,28.49
2023-06-01T16:45:50.238Z,28.41
2023-06-01T16:48:18.729Z,28.31
2023-06-01T16:50:47.009Z,28.24
2023-06-01T16:53:17.135Z,28.15
2023-06-01T16:55:44.282Z,28.05
2023-06-01T16:58:11.422Z,27.95
2023-06-01T17:00:38.705Z,27.85
2023-06-01T17:03:05.884Z,27.74
2023-06-01T17:05:35.161Z,27.63
2023-06-01T17:08:02.230Z,27.54
2023-06-01T17:10:29.349Z,27.45
2023-06-01T17:12:56.452Z,27.36
2023-06-01T17:15:23.501Z,27.25
2023-06-01T17:17:50.797Z,27.14
2023-06-01T17:20:17.875Z,27.02
2023-06-01T17:22:46.612Z,26.91
2023-06-01T17:25:13.766Z,26.79
2023-06-01T17:27:49.065Z,26.67
2023-06-01T17:30:16.338Z,26.52
2023-06-01T17:32:43.830Z,26.41
2023-06-01T17:35:10.987Z,26.26
2023-06-01T17:37:38.201Z,26.13
2023-06-01T17:40:08.255Z,25.99
2023-06-01T17:42:35.492Z,25.86
2023-06-01T17:45:02.576Z,25.72
2023-06-01T17:47:29.864Z,25.62
2023-06-01T17:49:56.961Z,25.53
2023-06-01T17:52:23.968Z,25.42
2023-06-01T17:54:51.022Z,25.35
2023-06-01T17:57:19.533Z,25.21
2023-06-01T17:59:46.624Z,25.10
2023-06-01T18:02:13.730Z,25.01
2023-06-01T18:04:40.784Z,24.90
2023-06-01T18:07:08.238Z,24.79
2023-06-01T18:09:35.252Z,24.69
2023-06-01T18:12:02.638Z,24.59
2023-06-01T18:14:31.248Z,24.41
2023-06-01T18:16:58.301Z,24.30
2023-06-01T18:19:25.659Z,24.20
2023-06-01T18:21:52.939Z,24.10
2023-06-01T18:24:22.942Z,24.03
2023-06-01T18:26:51.256Z,23.88
2023-06-01T18:29:18.316Z,23.79
2023-06-01T18:31:47.198Z,23.77
2023-06-01T18:34:14.363Z,23.75
2023-06-01T18:36:41.418Z,23.70
2023-06-01T18:39:13.034Z,23.57
2023-06-01T18:41:42.454Z,23.51
2023-06-01T18:44:12.766Z,23.47
2023-06-01T18:46:39.814Z,23.43
2023-06-01T18:49:08.865Z,23.39
2023-06-01T18:51:36.945Z,23.35
2023-06-01T18:54:06.248Z,23.25
2023-06-01T18:56:33.347Z,23.17
2023-06-01T18:59:00.546Z,23.09
2023-06-01T19:01:29.795Z,22.99
2023-06-01T19:03:56.917Z,22.88
2023-06-01T19:06:25.448Z,22.79
2023-06-01T19:08:52.945Z,22.72
2023-06-01T19:11:20.048Z,22.65
2023-06-01T19:13:48.224Z,22.59
2023-06-01T19:16:17.380Z,22.50
2023-06-01T19:18:48.868Z,22.41
2023-06-01T19:21:18.632Z,22.36
2023-06-01T19:23:49.277Z,22.31
2023-06-01T19:26:19.934Z,22.25
2023-06-01T19:28:50.601Z,22.21
2023-06-01T19:31:21.746Z,22.17
2023-06-01T19:33:49.671Z,22.13
2023-06-01T19:36:53.903Z,22.08
2023-06-01T19:39:36.241Z,22.01
2023-06-01T19:42:08.716Z,21.94
2023-06-01T19:44:36.488Z,21.86
2023-06-01T19:47:04.645Z,21.80
2023-06-01T19:49:36.977Z,21.70
2023-06-01T19:52:08.129Z,21.65
2023-06-01T19:54:37.803Z,21.61
2023-06-01T19:57:06.578Z,21.59
2023-06-01T19:59:33.842Z,21.55
2023-06-01T20:02:02.446Z,21.53
2023-06-01T20:04:32.121Z,21.49
2023-06-01T20:07:01.178Z,21.44
2023-06-01T20:09:28.210Z,21.38
2023-06-01T20:11:57.794Z,21.27
2023-06-01T20:14:27.742Z,21.15
2023-06-01T20:16:55.550Z,21.09
2023-06-01T20:19:24.097Z,21.04
2023-06-01T20:21:53.653Z,21.02
2023-06-01T20:24:24.414Z,20.94
2023-06-01T20:26:58.203Z,20.83
2023-06-01T20:29:27.340Z,20.77
2023-06-01T20:31:56.628Z,20.73
2023-06-01T20:34:25.466Z,20.67
2023-06-01T20:36:52.925Z,20.61
2023-06-01T20:39:20.829Z,20.58
2023-06-01T20:41:48.719Z,20.55
2023-06-01T20:44:18.849Z,20.49
2023-06-01T20:46:46.979Z,20.45
2023-06-01T20:49:14.037Z,20.41
2023-06-01T20:51:42.637Z,20.39
2023-06-01T20:54:11.434Z,20.33
2023-06-01T20:56:40.367Z,20.27
2023-06-01T20:59:10.276Z,20.25
2023-06-01T21:01:41.210Z,20.27
2023-06-01T21:04:10.210Z,20.29
2023-06-01T21:06:37.742Z,20.30
2023-06-01T21:09:07.719Z,20.28
2023-06-01T21:11:35.125Z,20.26
2023-06-01T21:14:02.497Z,20.23
2023-06-01T21:16:29.786Z,20.16
2023-06-01T21:18:58.352Z,20.10
2023-06-01T21:21:25.609Z,20.04
2023-06-01T21:23:54.132Z,20.01
2023-06-01T21:26:25.321Z,19.97
2023-06-01T21:28:53.152Z,19.88
2023-06-01T21:31:21.463Z,19.76
2023-06-01T21:33:48.636Z,19.73
2023-06-01T21:36:17.207Z,19.69
2023-06-01T21:38:44.667Z,19.66
2023-06-01T21:41:12.109Z,19.64
2023-06-01T21:43:39.230Z,19.63
2023-06-01T21:46:06.892Z,19.60
2023-06-01T21:48:34.210Z,19.59
2023-06-01T21:51:01.590Z,19.60
2023-06-01T21:53:30.422Z,19.59
2023-06-01T21:55:57.865Z,19.54
2023-06-01T21:58:25.659Z,19.52
2023-06-01T22:00:53.849Z,19.52
2023-06-01T22:03:22.611Z,19.50
2023-06-01T22:05:51.570Z,19.49
2023-06-01T22:08:18.893Z,19.46
2023-06-01T22:10:47.369Z,19.40
2023-06-01T22:13:14.481Z,19.35
2023-06-01T22:15:41.744Z,19.29
2023-06-01T22:18:09.334Z,19.24
2023-06-01T22:20:36.532Z,19.21
2023-06-01T22:23:04.049Z,19.17
2023-06-01T22:25:31.398Z,19.12
2023-06-01T22:27:59.892Z,19.09
2023-06-01T22:30:29.185Z,19.05
2023-06-01T22:32:56.593Z,19.04
2023-06-01T22:35:23.870Z,18.99
2023-06-01T22:37:51.018Z,18.95
2023-06-01T22:40:18.106Z,18.90
2023-06-01T22:42:45.290Z,18.88
2023-06-01T22:45:14.168Z,18.83
2023-06-01T22:47:41.343Z,18.76
2023-06-01T22:50:10.668Z,18.72
2023-06-01T22:52:39.424Z,18.67
2023-06-01T22:55:07.296Z,18.64
2023-06-01T22:57:37.829Z,18.60
2023-06-01T23:00:08.687Z,18.59
2023-06-01T23:02:37.419Z,18.56
2023-06-01T23:05:06.302Z,18.51
2023-06-01T23:07:33.664Z,18.49
2023-06-01T23:10:01.406Z,18.44
2023-06-01T23:12:28.818Z,18.42
2023-06-01T23:14:56.407Z,18.42
2023-06-01T23:17:25.386Z,18.39
2023-06-01T23:19:54.048Z,18.38
2023-06-01T23:22:21.743Z,18.33
2023-06-01T23:24:48.983Z,18.31
2023-06-01T23:27:16.198Z,18.31
2023-06-01T23:29:43.469Z,18.27
2023-06-01T23:32:10.986Z,18.26
2023-06-01T23:34:38.284Z,18.25
2023-06-01T23:37:07.025Z,18.24
2023-06-01T23:39:34.151Z,18.24
2023-06-01T23:42:01.334Z,18.23
2023-06-01T23:44:28.600Z,18.22
2023-06-01T23:46:55.690Z,18.20
2023-06-01T23:49:22.773Z,18.18
2023-06-01T23:51:50.169Z,18.15
2023-06-01T23:54:18.656Z,18.10
2023-06-01T23:56:45.784Z,18.02
2023-06-01T23:59:13.588Z,17.97
